Time;durP1;ratioP1;P1;durP2;ratioP2;P2;SDS_P1;SDS_P2;PMS_P1;PMS_P2;Temp;Humidity;BMP_temperature;BMP_pressure;BME280_temperature;BME280_humidity;BME280_pressure;Samples;Min_cycle;Max_cycle;Signal;HPM_P1;HPM_P2
2021/04/30 00:00:51;;;;;;;7.40;6.10;;;7.20;80.40;;;;;;5093445;28;20463;-74
2021/04/30 00:03:19;;;;;;;13.23;5.60;;;7.20;80.70;;;;;;5093535;28;21009;-74
2021/04/30 00:05:45;;;;;;;10.93;5.70;;;7.20;81.10;;;;;;5093767;28;20443;-74
2021/04/30 00:08:12;;;;;;;9.60;6.20;;;7.20;81.00;;;;;;5093055;28;20467;-74
2021/04/30 00:10:39;;;;;;;6.27;5.10;;;7.20;81.10;;;;;;5094449;28;20455;-74
2021/04/30 00:13:06;;;;;;;9.23;6.17;;;7.20;81.20;;;;;;5093445;28;20436;-74
2021/04/30 00:15:32;;;;;;;11.10;5.50;;;7.20;81.60;;;;;;5093297;28;20945;-74
2021/04/30 00:18:04;;;;;;;10.13;5.90;;;7.20;81.70;;;;;;5093330;28;20443;-74
2021/04/30 00:20:31;;;;;;;11.73;6.00;;;7.30;81.60;;;;;;5093645;28;20806;-74
2021/04/30 00:22:57;;;;;;;8.37;5.50;;;7.20;81.40;;;;;;5093412;28;20847;-74
2021/04/30 00:25:23;;;;;;;8.90;5.60;;;7.30;81.50;;;;;;5093522;28;20448;-74
2021/04/30 00:27:50;;;;;;;12.63;5.97;;;7.30;81.20;;;;;;5093125;28;20984;-74
2021/04/30 00:30:17;;;;;;;9.87;5.63;;;7.30;81.30;;;;;;5093122;28;20940;-74
2021/04/30 00:32:43;;;;;;;15.50;6.17;;;7.20;81.30;;;;;;5093217;28;20439;-74
2021/04/30 00:35:10;;;;;;;12.17;5.87;;;7.20;81.70;;;;;;5093409;28;20451;-74
2021/04/30 00:37:38;;;;;;;7.17;5.30;;;7.20;81.70;;;;;;5093079;28;20444;-74
2021/04/30 00:40:06;;;;;;;11.57;6.93;;;7.20;81.30;;;;;;5093459;28;20444;-74
2021/04/30 00:42:33;;;;;;;8.30;5.20;;;7.30;81.70;;;;;;5093250;28;20479;-75
2021/04/30 00:44:59;;;;;;;11.20;5.50;;;7.30;81.50;;;;;;5093322;28;20443;-75
2021/04/30 00:47:27;;;;;;;11.60;5.80;;;7.30;81.30;;;;;;5093503;28;20467;-75
2021/04/30 00:49:53;;;;;;;10.80;5.70;;;7.30;81.30;;;;;;5092923;28;20479;-74
2021/04/30 00:52:20;;;;;;;9.13;6.67;;;7.40;81.40;;;;;;5093016;28;20835;-74
2021/04/30 00:54:47;;;;;;;12.87;6.40;;;7.30;81.30;;;;;;5092850;28;20450;-74
2021/04/30 00:57:14;;;;;;;8.43;5.40;;;7.30;81.20;;;;;;5093208;28;20454;-74
2021/04/30 00:59:41;;;;;;;8.80;6.13;;;7.30;81.10;;;;;;5093088;28;20474;-74
2021/04/30 01:02:08;;;;;;;10.53;6.53;;;7.30;81.30;;;;;;5093048;28;20879;-74
2021/04/30 01:04:34;;;;;;;9.07;5.83;;;7.30;81.70;;;;;;5093418;28;20454;-74
2021/04/30 01:07:00;;;;;;;14.30;6.37;;;7.30;81.70;;;;;;5093014;28;20939;-74
2021/04/30 01:09:26;;;;;;;7.53;6.73;;;7.30;81.90;;;;;;5092922;28;20464;-74
2021/04/30 01:11:54;;;;;;;10.00;6.10;;;7.30;81.60;;;;;;5093336;28;20443;-74
2021/04/30 01:14:20;;;;;;;10.80;6.60;;;7.40;81.50;;;;;;5093074;28;20450;-74
2021/04/30 01:16:46;;;;;;;9.77;6.97;;;7.40;81.10;;;;;;5093898;28;20447;-74
2021/04/30 01:19:20;;;;;;;11.97;7.10;;;7.40;80.80;;;;;;5096937;28;20468;-74
2021/04/30 01:21:51;;;;;;;19.53;6.33;;;7.40;81.10;;;;;;5098013;28;20471;-74
2021/04/30 01:24:17;;;;;;;9.07;7.47;;;7.30;81.20;;;;;;5097897;28;20971;-74
2021/04/30 01:26:44;;;;;;;11.73;7.40;;;7.30;81.80;;;;;;5097261;28;20527;-74
2021/04/30 01:29:10;;;;;;;13.83;7.70;;;7.20;81.80;;;;;;5097057;28;20471;-74
2021/04/30 01:31:36;;;;;;;11.90;7.00;;;7.30;82.20;;;;;;5096552;28;20514;-74
2021/04/30 01:34:03;;;;;;;11.87;7.63;;;7.30;81.70;;;;;;5096710;28;20913;-74
2021/04/30 01:36:30;;;;;;;9.67;7.80;;;7.30;81.50;;;;;;5096630;28;20439;-74
2021/04/30 01:38:58;;;;;;;12.60;7.60;;;7.30;81.30;;;;;;5096531;28;20498;-74
2021/04/30 01:41:24;;;;;;;13.33;8.50;;;7.20;81.80;;;;;;5096334;28;20478;-74
2021/04/30 01:43:51;;;;;;;12.77;7.97;;;7.20;81.60;;;;;;5096234;28;20455;-74
2021/04/30 01:46:17;;;;;;;9.67;8.30;;;7.20;82.10;;;;;;5096171;28;20455;-74
2021/04/30 01:48:43;;;;;;;9.47;8.47;;;7.20;82.30;;;;;;5096155;28;20493;-74
2021/04/30 01:51:10;;;;;;;15.33;9.20;;;7.20;82.30;;;;;;5095974;28;20443;-74
2021/04/30 01:53:37;;;;;;;8.93;7.80;;;7.20;81.80;;;;;;5095683;28;20451;-74
2021/04/30 01:56:06;;;;;;;12.20;9.30;;;7.20;81.90;;;;;;5096019;28;20438;-74
2021/04/30 01:58:32;;;;;;;19.47;9.37;;;7.20;82.10;;;;;;5095943;28;20463;-74
2021/04/30 02:00:59;;;;;;;11.70;9.33;;;7.20;83.00;;;;;;5095937;28;20788;-74
2021/04/30 02:03:25;;;;;;;13.33;8.90;;;7.20;82.30;;;;;;5095895;28;20490;-74
2021/04/30 02:05:52;;;;;;;16.53;9.80;;;7.20;82.30;;;;;;5095847;28;20448;-74
2021/04/30 02:08:20;;;;;;;14.77;10.47;;;7.20;82.30;;;;;;5095493;28;20448;-74
2021/04/30 02:10:47;;;;;;;15.40;10.80;;;7.20;82.30;;;;;;5095905;28;20450;-74
2021/04/30 02:13:16;;;;;;;14.10;10.23;;;7.20;82.10;;;;;;5095698;28;20444;-74
2021/04/30 02:15:47;;;;;;;11.10;9.90;;;7.20;82.70;;;;;;5095687;28;20451;-74
2021/04/30 02:18:14;;;;;;;11.00;9.53;;;7.20;83.10;;;;;;5095564;28;20463;-74
2021/04/30 02:20:41;;;;;;;16.40;10.17;;;7.30;82.70;;;;;;5095521;28;20444;-74
2021/04/30 02:23:08;;;;;;;12.17;10.27;;;7.30;82.60;;;;;;5095377;28;20483;-74
2021/04/30 02:25:35;;;;;;;13.33;11.37;;;7.30;82.70;;;;;;5095122;28;20432;-74
2021/04/30 02:28:02;;;;;;;11.70;10.50;;;7.30;82.70;;;;;;5095255;28;20554;-74
2021/04/30 02:30:31;;;;;;;15.10;10.60;;;7.20;82.60;;;;;;5094451;28;20447;-74
2021/04/30 02:32:58;;;;;;;16.40;11.57;;;7.30;82.70;;;;;;5095182;28;20440;-74
2021/04/30 02:35:27;;;;;;;14.43;10.93;;;7.30;82.80;;;;;;5094917;28;20504;-74
2021/04/30 02:37:54;;;;;;;14.77;11.53;;;7.40;83.00;;;;;;5095031;28;20448;-74
2021/04/30 02:40:25;;;;;;;12.93;11.50;;;7.40;82.50;;;;;;5095096;28;20440;-74
2021/04/30 02:42:53;;;;;;;13.77;11.87;;;7.40;82.40;;;;;;5094758;28;20467;-74
2021/04/30 02:45:20;;;;;;;13.23;11.67;;;7.40;82.30;;;;;;5094977;28;20980;-74
2021/04/30 02:47:48;;;;;;;13.73;11.90;;;7.40;82.10;;;;;;5094637;28;20455;-74
2021/04/30 02:50:17;;;;;;;13.10;11.40;;;7.40;82.60;;;;;;5094774;28;20451;-74
2021/04/30 02:52:43;;;;;;;17.13;13.07;;;7.40;82.50;;;;;;5094897;28;20451;-74
2021/04/30 02:55:11;;;;;;;18.90;12.70;;;7.40;82.20;;;;;;5094791;28;20512;-74
2021/04/30 02:57:37;;;;;;;18.20;13.17;;;7.40;82.20;;;;;;5094551;28;20941;-74
2021/04/30 03:00:05;;;;;;;15.20;12.30;;;7.40;82.80;;;;;;5094690;28;20542;-74
2021/04/30 03:02:31;;;;;;;16.83;13.33;;;7.40;82.60;;;;;;5094837;28;20507;-74
2021/04/30 03:04:58;;;;;;;16.73;13.00;;;7.40;82.90;;;;;;5094602;28;20577;-74
2021/04/30 03:07:25;;;;;;;15.17;13.33;;;7.40;82.70;;;;;;5094535;28;20451;-74
2021/04/30 03:09:51;;;;;;;19.93;14.47;;;7.50;82.50;;;;;;5094488;28;20915;-74
2021/04/30 03:12:17;;;;;;;19.97;13.63;;;7.50;82.40;;;;;;5094634;28;20451;-74
2021/04/30 03:14:44;;;;;;;14.77;13.00;;;7.40;82.40;;;;;;5094502;28;20444;-74
2021/04/30 03:17:10;;;;;;;15.40;13.90;;;7.40;82.20;;;;;;5094387;28;20451;-74
2021/04/30 03:19:36;;;;;;;19.77;14.77;;;7.40;82.30;;;;;;5094896;28;20893;-74
2021/04/30 03:22:03;;;;;;;20.20;14.27;;;7.50;82.50;;;;;;5094227;28;20475;-74
2021/04/30 03:24:29;;;;;;;16.77;15.07;;;7.50;82.00;;;;;;5094060;28;20901;-74
2021/04/30 03:26:56;;;;;;;22.27;17.60;;;7.50;82.10;;;;;;5094020;28;20423;-74
2021/04/30 03:29:22;;;;;;;19.73;15.13;;;7.50;81.90;;;;;;5094143;28;20507;-74
2021/04/30 03:31:48;;;;;;;16.80;13.57;;;7.50;81.70;;;;;;5094415;28;20439;-74
2021/04/30 03:34:15;;;;;;;16.47;14.53;;;7.60;81.70;;;;;;5093868;28;20440;-74
2021/04/30 03:36:41;;;;;;;20.50;16.37;;;7.60;81.50;;;;;;5094085;28;20469;-74
2021/04/30 03:39:09;;;;;;;15.60;13.90;;;7.50;81.30;;;;;;5094224;28;20474;-74
2021/04/30 03:41:36;;;;;;;16.60;14.90;;;7.50;81.60;;;;;;5093850;28;20475;-74
2021/04/30 03:44:02;;;;;;;16.93;15.07;;;7.50;81.10;;;;;;5093947;28;20450;-74
2021/04/30 03:46:29;;;;;;;19.10;15.37;;;7.40;81.70;;;;;;5093586;28;20452;-74
2021/04/30 03:48:55;;;;;;;17.83;15.60;;;7.40;82.10;;;;;;5093808;28;20468;-74
2021/04/30 03:51:21;;;;;;;16.47;14.60;;;7.40;82.20;;;;;;5093516;28;20451;-74
2021/04/30 03:53:47;;;;;;;17.10;14.17;;;7.40;82.40;;;;;;5093509;28;20940;-74
2021/04/30 03:56:15;;;;;;;17.90;16.10;;;7.30;82.60;;;;;;5093757;28;20448;-75
2021/04/30 03:58:41;;;;;;;17.80;15.87;;;7.30;83.80;;;;;;5093685;28;20836;-74
2021/04/30 04:01:07;;;;;;;18.50;15.30;;;7.40;82.80;;;;;;5093557;28;20945;-74
2021/04/30 04:03:34;;;;;;;16.10;14.10;;;7.40;82.20;;;;;;5093428;28;20451;-73
2021/04/30 04:06:00;;;;;;;16.13;14.40;;;7.50;82.20;;;;;;5093742;28;20995;-74
2021/04/30 04:08:28;;;;;;;19.83;15.07;;;7.50;82.00;;;;;;5093571;28;20464;-74
2021/04/30 04:10:55;;;;;;;17.07;15.17;;;7.50;82.00;;;;;;5093544;28;20462;-74
2021/04/30 04:13:24;;;;;;;21.80;16.17;;;7.50;81.90;;;;;;5093567;28;20513;-74
2021/04/30 04:15:51;;;;;;;18.53;16.60;;;7.40;82.20;;;;;;5093258;28;20454;-74
2021/04/30 04:18:19;;;;;;;17.60;15.27;;;7.50;82.60;;;;;;5093246;28;20985;-74
2021/04/30 04:20:46;;;;;;;22.77;15.60;;;7.50;82.30;;;;;;5093785;28;20428;-74
2021/04/30 04:23:13;;;;;;;17.60;14.40;;;7.50;82.20;;;;;;5094003;28;20475;-74
2021/04/30 04:25:39;;;;;;;16.67;13.90;;;7.50;82.10;;;;;;5094913;28;20444;-74
2021/04/30 04:28:06;;;;;;;20.77;14.77;;;7.60;81.90;;;;;;5093672;28;20467;-74
2021/04/30 04:30:34;;;;;;;18.37;15.20;;;7.60;81.70;;;;;;5093752;28;20485;-74
2021/04/30 04:33:00;;;;;;;16.97;15.23;;;7.60;81.70;;;;;;5093500;28;20926;-74
2021/04/30 04:35:27;;;;;;;17.67;15.00;;;7.60;82.30;;;;;;5093307;28;20800;-74
2021/04/30 04:37:53;;;;;;;19.83;15.50;;;7.50;82.00;;;;;;5093266;28;20435;-74
2021/04/30 04:40:20;;;;;;;17.47;15.70;;;7.60;82.10;;;;;;5093885;28;20448;-74
2021/04/30 04:42:47;;;;;;;24.07;17.17;;;7.50;81.90;;;;;;5093550;28;20519;-74
2021/04/30 04:45:15;;;;;;;18.57;15.00;;;7.50;82.10;;;;;;5093276;28;20963;-74
2021/04/30 04:47:43;;;;;;;20.10;14.60;;;7.50;82.30;;;;;;5093499;28;20554;-75
2021/04/30 04:50:11;;;;;;;19.73;17.00;;;7.60;82.10;;;;;;5092993;28;20941;-74
2021/04/30 04:52:37;;;;;;;18.00;15.03;;;7.70;82.10;;;;;;5093299;28;20930;-74
2021/04/30 04:55:05;;;;;;;24.97;17.30;;;7.60;81.70;;;;;;5097126;28;20455;-74
2021/04/30 04:57:31;;;;;;;22.40;17.03;;;7.80;81.70;;;;;;5096943;28;20440;-74
2021/04/30 04:59:57;;;;;;;19.20;16.90;;;7.70;80.70;;;;;;5096895;28;20466;-74
2021/04/30 05:02:24;;;;;;;21.57;16.67;;;7.70;81.40;;;;;;5097059;28;20490;-74
2021/04/30 05:04:51;;;;;;;19.13;15.53;;;7.70;81.20;;;;;;5097911;28;20443;-74
2021/04/30 05:07:18;;;;;;;18.33;15.57;;;7.80;81.30;;;;;;5097103;28;20444;-74
2021/04/30 05:09:45;;;;;;;18.90;16.37;;;7.80;81.20;;;;;;5096881;28;20538;-74
2021/04/30 05:12:11;;;;;;;21.43;17.00;;;7.80;81.20;;;;;;5096607;28;20957;-74
2021/04/30 05:14:37;;;;;;;21.70;17.10;;;7.80;80.80;;;;;;5096789;28;20478;-74
2021/04/30 05:17:03;;;;;;;20.80;16.97;;;7.80;80.60;;;;;;5096613;28;20444;-74
2021/04/30 05:19:30;;;;;;;22.40;17.27;;;7.90;80.90;;;;;;5096754;28;20467;-74
2021/04/30 05:21:58;;;;;;;22.83;17.07;;;8.00;80.60;;;;;;5096667;28;20475;-74
2021/04/30 05:24:24;;;;;;;24.70;17.57;;;8.00;80.40;;;;;;5096736;28;20461;-74
2021/04/30 05:26:51;;;;;;;20.33;16.83;;;8.00;80.40;;;;;;5096295;28;20955;-75
2021/04/30 05:29:18;;;;;;;20.00;17.53;;;8.00;80.20;;;;;;5096585;28;20470;-74
2021/04/30 05:31:44;;;;;;;19.90;17.10;;;8.00;80.10;;;;;;5096642;28;20956;-74
2021/04/30 05:34:11;;;;;;;22.87;16.43;;;7.90;80.40;;;;;;5096188;28;20447;-74
2021/04/30 05:36:37;;;;;;;17.23;15.43;;;8.00;80.60;;;;;;5096131;28;20454;-74
2021/04/30 05:39:05;;;;;;;26.97;17.27;;;7.90;80.40;;;;;;5096086;28;20468;-74
2021/04/30 05:41:31;;;;;;;20.50;16.07;;;7.90;80.50;;;;;;5096127;28;20441;-74
2021/04/30 05:43:58;;;;;;;19.57;16.90;;;7.80;80.70;;;;;;5096285;28;20509;-74
2021/04/30 05:46:24;;;;;;;19.73;16.90;;;7.80;80.90;;;;;;5096161;28;20505;-74
2021/04/30 05:48:50;;;;;;;19.00;16.77;;;7.80;81.30;;;;;;5096144;28;20471;-74
2021/04/30 05:51:16;;;;;;;21.77;18.40;;;7.70;81.30;;;;;;5095879;28;20459;-74
2021/04/30 05:53:42;;;;;;;25.10;17.80;;;7.70;81.30;;;;;;5096038;28;20440;-74
2021/04/30 05:56:09;;;;;;;18.47;16.60;;;7.70;81.90;;;;;;5096033;28;20443;-74
2021/04/30 05:58:36;;;;;;;24.50;16.70;;;7.70;81.80;;;;;;5095590;28;20462;-74
2021/04/30 06:01:02;;;;;;;20.80;16.33;;;7.80;81.70;;;;;;5095930;28;20493;-74
2021/04/30 06:03:28;;;;;;;24.00;17.03;;;7.80;81.40;;;;;;5095896;28;20518;-74
2021/04/30 06:05:54;;;;;;;21.17;16.90;;;7.80;81.40;;;;;;5094541;28;20964;-74
2021/04/30 06:08:21;;;;;;;22.73;17.40;;;7.90;81.60;;;;;;5096028;28;20483;-74
2021/04/30 06:10:47;;;;;;;21.03;16.20;;;7.90;81.90;;;;;;5095608;28;20478;-74
2021/04/30 06:13:14;;;;;;;24.33;16.97;;;8.00;82.20;;;;;;5095714;28;20811;-74
2021/04/30 06:15:40;;;;;;;21.33;16.80;;;7.90;82.30;;;;;;5095284;28;20993;-73
2021/04/30 06:18:06;;;;;;;21.63;16.30;;;8.00;83.00;;;;;;5095102;28;20467;-71
2021/04/30 06:20:33;;;;;;;20.37;17.00;;;8.00;83.50;;;;;;5095546;28;20456;-71
2021/04/30 06:22:59;;;;;;;18.90;16.90;;;8.10;84.10;;;;;;5095354;28;20483;-71
2021/04/30 06:25:25;;;;;;;22.53;16.33;;;8.00;84.80;;;;;;5095356;28;20498;-72
2021/04/30 06:27:51;;;;;;;22.93;18.80;;;8.00;84.90;;;;;;5095217;28;20783;-72
2021/04/30 06:30:19;;;;;;;24.13;18.10;;;8.10;84.90;;;;;;5094916;28;20444;-71
2021/04/30 06:32:45;;;;;;;24.53;17.80;;;8.10;85.10;;;;;;5095222;28;20818;-71
2021/04/30 06:35:12;;;;;;;20.77;18.43;;;8.10;84.80;;;;;;5095412;28;20470;-71
2021/04/30 06:37:39;;;;;;;25.00;17.90;;;8.20;84.80;;;;;;5094744;28;20440;-71
2021/04/30 06:40:07;;;;;;;26.90;17.50;;;8.20;85.10;;;;;;5094869;28;20890;-72
2021/04/30 06:42:33;;;;;;;24.43;18.67;;;8.20;86.10;;;;;;5094834;28;20475;-72
2021/04/30 06:44:59;;;;;;;25.40;19.57;;;8.30;86.30;;;;;;5094846;28;20504;-72
2021/04/30 06:47:26;;;;;;;20.50;18.30;;;8.40;86.50;;;;;;5094938;28;20428;-72
2021/04/30 06:49:53;;;;;;;21.17;19.00;;;8.40;85.90;;;;;;5094746;28;20481;-73
2021/04/30 06:52:19;;;;;;;23.17;19.47;;;8.50;85.80;;;;;;5094474;28;20451;-72
2021/04/30 06:54:45;;;;;;;22.13;19.03;;;8.50;85.80;;;;;;5094616;28;20502;-72
2021/04/30 06:57:15;;;;;;;25.40;19.30;;;8.60;85.20;;;;;;5094742;28;20439;-72
2021/04/30 06:59:42;;;;;;;22.10;19.03;;;8.60;85.70;;;;;;5094514;28;20472;-72
2021/04/30 07:02:08;;;;;;;21.30;18.30;;;8.60;85.40;;;;;;5094510;28;20500;-72
2021/04/30 07:04:35;;;;;;;23.27;20.87;;;8.70;85.80;;;;;;5094424;28;20448;-72
2021/04/30 07:07:01;;;;;;;22.90;20.53;;;8.70;86.00;;;;;;5094243;28;20447;-72
2021/04/30 07:09:28;;;;;;;26.70;21.00;;;8.70;86.40;;;;;;5094533;28;20464;-72
2021/04/30 07:11:54;;;;;;;24.53;21.57;;;8.90;86.10;;;;;;5094525;28;20427;-74
2021/04/30 07:14:21;;;;;;;28.10;20.57;;;8.80;85.50;;;;;;5094502;28;20455;-73
2021/04/30 07:16:47;;;;;;;30.77;21.27;;;8.80;85.70;;;;;;5094122;28;20439;-73
2021/04/30 07:19:13;;;;;;;23.60;19.97;;;8.80;85.70;;;;;;5094303;28;20479;-73
2021/04/30 07:21:41;;;;;;;27.70;19.97;;;8.90;85.80;;;;;;5094241;28;20431;-73
2021/04/30 07:24:08;;;;;;;27.47;19.30;;;8.90;85.40;;;;;;5094025;28;20956;-73
2021/04/30 07:26:34;;;;;;;26.90;21.23;;;8.90;85.30;;;;;;5094215;28;20451;-73
2021/04/30 07:29:00;;;;;;;29.60;21.67;;;8.90;85.30;;;;;;5093814;28;20470;-74
2021/04/30 07:31:26;;;;;;;24.13;20.10;;;8.90;85.60;;;;;;5094227;28;20430;-73
2021/04/30 07:33:53;;;;;;;23.23;20.73;;;8.90;86.20;;;;;;5094156;28;20428;-73
2021/04/30 07:36:19;;;;;;;26.63;23.47;;;9.00;86.10;;;;;;5094725;28;20435;-73
2021/04/30 07:38:46;;;;;;;23.20;19.17;;;8.90;85.20;;;;;;5094971;28;20467;-73
2021/04/30 07:41:13;;;;;;;27.03;21.43;;;9.00;85.30;;;;;;5094101;28;20428;-73
2021/04/30 07:43:39;;;;;;;22.97;20.30;;;8.90;85.00;;;;;;5093939;28;20476;-73
2021/04/30 07:46:06;;;;;;;24.73;19.90;;;8.90;85.50;;;;;;5093968;28;20429;-73
2021/04/30 07:48:32;;;;;;;22.17;19.87;;;8.90;85.10;;;;;;5093657;28;20485;-73
2021/04/30 07:51:01;;;;;;;24.40;21.40;;;9.00;85.70;;;;;;5093634;28;20478;-73
2021/04/30 07:53:27;;;;;;;27.80;21.23;;;9.10;86.00;;;;;;5093930;28;20851;-73
2021/04/30 07:55:54;;;;;;;24.80;21.10;;;9.10;85.80;;;;;;5093707;28;20917;-73
2021/04/30 07:58:25;;;;;;;24.83;22.13;;;9.20;85.20;;;;;;5093749;28;20474;-73
2021/04/30 08:00:52;;;;;;;23.93;21.23;;;9.30;85.00;;;;;;5093758;28;20432;-74
2021/04/30 08:03:19;;;;;;;23.63;20.10;;;9.30;84.90;;;;;;5093625;28;20504;-74
2021/04/30 08:05:46;;;;;;;25.67;20.70;;;9.40;84.30;;;;;;5093921;28;20436;-74
2021/04/30 08:08:12;;;;;;;30.23;21.67;;;9.40;84.00;;;;;;5093365;28;20842;-74
2021/04/30 08:10:38;;;;;;;25.50;20.60;;;9.40;83.40;;;;;;5093677;28;20445;-74
2021/04/30 08:13:05;;;;;;;24.20;21.00;;;9.40;83.60;;;;;;5093729;28;20442;-74
2021/04/30 08:15:32;;;;;;;23.80;20.87;;;9.40;82.30;;;;;;5093703;28;20437;-74
2021/04/30 08:17:58;;;;;;;22.83;19.20;;;9.40;82.40;;;;;;5093716;28;20455;-74
2021/04/30 08:20:24;;;;;;;24.00;20.37;;;9.50;82.10;;;;;;5093254;28;20456;-74
2021/04/30 08:22:51;;;;;;;26.47;20.07;;;9.60;82.30;;;;;;5093340;28;21038;-74
2021/04/30 08:25:17;;;;;;;27.47;18.53;;;9.70;81.90;;;;;;5093555;28;20447;-74
2021/04/30 08:27:43;;;;;;;24.77;19.00;;;9.80;81.10;;;;;;5093991;28;20473;-74
2021/04/30 08:30:12;;;;;;;25.23;20.40;;;9.80;80.90;;;;;;5097284;28;20512;-74
2021/04/30 08:32:39;;;;;;;31.83;19.07;;;9.90;81.40;;;;;;5097586;28;20447;-74
2021/04/30 08:35:06;;;;;;;22.20;18.60;;;10.00;80.20;;;;;;5097612;28;20443;-74
2021/04/30 08:37:32;;;;;;;28.57;19.63;;;10.00;80.10;;;;;;5097547;28;20456;-74
2021/04/30 08:40:00;;;;;;;27.10;19.30;;;10.10;79.90;;;;;;5097464;28;20469;-74
2021/04/30 08:42:28;;;;;;;25.57;19.70;;;10.20;80.00;;;;;;5097418;28;20475;-74
2021/04/30 08:44:54;;;;;;;22.83;18.10;;;10.30;79.40;;;;;;5097386;28;20445;-74
2021/04/30 08:47:22;;;;;;;22.97;19.07;;;10.40;78.50;;;;;;5097115;28;20404;-74
2021/04/30 08:49:52;;;;;;;22.07;19.03;;;10.50;78.60;;;;;;5097001;28;20476;-74
2021/04/30 08:52:19;;;;;;;22.37;17.63;;;10.50;78.20;;;;;;5096930;28;20919;-74
2021/04/30 08:54:49;;;;;;;25.90;17.80;;;10.40;76.80;;;;;;5096842;28;21009;-74
2021/04/30 08:57:19;;;;;;;26.53;18.40;;;10.30;76.30;;;;;;5097148;28;20451;-74
2021/04/30 08:59:46;;;;;;;27.77;18.00;;;10.30;78.20;;;;;;5096899;28;21071;-74
2021/04/30 09:02:12;;;;;;;18.90;16.93;;;10.30;77.90;;;;;;5097530;28;20999;-74
2021/04/30 09:04:41;;;;;;;20.40;16.97;;;10.30;77.30;;;;;;5097293;28;20440;-74
2021/04/30 09:07:20;;;;;;;20.27;18.07;;;10.30;76.80;;;;;;5096571;28;20960;-74
2021/04/30 09:10:01;;;;;;;23.20;17.73;;;10.20;77.30;;;;;;5096756;28;20807;-74
2021/04/30 09:12:28;;;;;;;22.23;18.43;;;10.10;77.80;;;;;;5096826;28;20518;-74
2021/04/30 09:14:54;;;;;;;25.50;19.00;;;10.00;77.70;;;;;;5096809;28;20408;-74
2021/04/30 09:17:21;;;;;;;19.13;16.90;;;10.00;78.30;;;;;;5096717;28;20444;-74
2021/04/30 09:19:51;;;;;;;18.50;16.40;;;10.10;79.20;;;;;;5096687;28;20480;-74
2021/04/30 09:22:19;;;;;;;26.73;19.00;;;10.10;78.90;;;;;;5096660;28;20533;-74
2021/04/30 09:24:51;;;;;;;22.40;19.63;;;10.00;77.80;;;;;;5096615;28;20501;-74
2021/04/30 09:27:33;;;;;;;31.57;18.20;;;10.10;77.90;;;;;;5096694;28;20851;-74
2021/04/30 09:30:17;;;;;;;24.87;19.33;;;10.10;78.00;;;;;;5094484;28;20471;-74
2021/04/30 09:33:06;;;;;;;24.47;19.20;;;10.20;78.30;;;;;;5096527;28;20896;-74
2021/04/30 09:35:34;;;;;;;26.43;19.40;;;10.30;77.70;;;;;;5096458;28;20442;-74
2021/04/30 09:38:13;;;;;;;22.60;18.37;;;10.40;76.40;;;;;;5096344;28;20420;-74
2021/04/30 09:40:39;;;;;;;25.77;18.17;;;10.40;76.40;;;;;;5096168;28;20485;-74
2021/04/30 09:43:07;;;;;;;20.83;17.10;;;10.50;76.60;;;;;;5096440;28;20459;-74
2021/04/30 09:45:34;;;;;;;21.20;17.60;;;10.50;76.10;;;;;;5096300;28;20446;-74
2021/04/30 09:48:02;;;;;;;21.63;17.87;;;10.60;77.20;;;;;;5096195;28;20792;-74
2021/04/30 09:50:30;;;;;;;22.40;17.87;;;10.80;76.50;;;;;;5096141;28;20455;-74
2021/04/30 09:52:58;;;;;;;26.87;17.83;;;11.00;74.40;;;;;;5096107;28;20447;-74
2021/04/30 09:55:39;;;;;;;20.80;17.60;;;11.10;74.40;;;;;;5096185;28;20428;-74
2021/04/30 09:58:21;;;;;;;21.63;18.60;;;11.10;73.60;;;;;;5096071;28;20467;-74
2021/04/30 10:00:49;;;;;;;22.97;16.90;;;11.30;74.00;;;;;;5094056;28;20447;-74
2021/04/30 10:03:20;;;;;;;23.50;17.70;;;11.40;73.00;;;;;;5095522;28;20991;-74
2021/04/30 10:06:01;;;;;;;24.23;19.50;;;11.40;72.60;;;;;;5095852;28;20455;-74
2021/04/30 10:08:29;;;;;;;21.60;19.10;;;11.40;73.50;;;;;;5096029;28;20495;-74
2021/04/30 10:10:55;;;;;;;25.23;19.87;;;11.50;71.90;;;;;;5095874;28;20771;-74
2021/04/30 10:13:21;;;;;;;22.00;19.67;;;11.50;72.50;;;;;;5095390;28;20451;-74
2021/04/30 10:15:47;;;;;;;26.90;18.80;;;11.40;72.60;;;;;;5095774;28;20428;-74
2021/04/30 10:18:17;;;;;;;23.20;18.80;;;11.60;72.10;;;;;;5095343;28;20452;-74
2021/04/30 10:20:43;;;;;;;24.80;18.53;;;11.60;72.50;;;;;;5095566;28;20435;-74
2021/04/30 10:23:14;;;;;;;23.43;18.83;;;11.70;70.90;;;;;;5095496;28;20494;-74
2021/04/30 10:25:45;;;;;;;27.30;19.30;;;11.70;73.40;;;;;;5095243;28;20484;-74
2021/04/30 10:28:14;;;;;;;25.03;20.93;;;11.90;72.70;;;;;;5095563;28;20973;-74
2021/04/30 10:30:47;;;;;;;34.60;20.80;;;12.10;70.60;;;;;;5095561;28;20565;-74
2021/04/30 10:33:17;;;;;;;25.93;20.10;;;12.30;71.00;;;;;;5095086;28;20914;-74
2021/04/30 10:35:48;;;;;;;30.70;20.10;;;12.60;69.10;;;;;;5095232;28;20905;-74
2021/04/30 10:38:18;;;;;;;22.87;19.63;;;12.70;67.50;;;;;;5095278;28;20468;-74
2021/04/30 10:44:32;;;;;;;21.30;18.47;;;13.10;66.30;;;;;;5094986;28;20443;-74
2021/04/30 10:47:24;;;;;;;27.53;17.93;;;13.20;64.30;;;;;;5095340;28;20454;-74
2021/04/30 10:50:12;;;;;;;28.07;19.30;;;13.30;64.70;;;;;;5095303;28;20483;-74
2021/04/30 10:52:39;;;;;;;23.57;19.17;;;13.30;63.20;;;;;;5094786;28;20433;-74
2021/04/30 10:55:07;;;;;;;24.93;19.47;;;13.20;64.20;;;;;;5095121;28;20439;-74
2021/04/30 10:57:55;;;;;;;29.00;19.90;;;13.40;65.10;;;;;;5094936;28;20432;-74
2021/04/30 11:00:27;;;;;;;26.40;20.40;;;13.70;64.20;;;;;;5094461;28;20937;-74
2021/04/30 11:03:13;;;;;;;22.67;19.60;;;13.90;62.50;;;;;;5094693;28;20475;-74
2021/04/30 11:05:54;;;;;;;25.17;18.73;;;14.20;62.30;;;;;;5094512;28;20405;-74
2021/04/30 11:08:43;;;;;;;22.00;18.60;;;14.50;60.60;;;;;;5094606;28;20464;-74
2021/04/30 11:11:09;;;;;;;22.70;19.37;;;15.00;58.80;;;;;;5094185;28;20451;-75
2021/04/30 11:13:35;;;;;;;25.33;17.37;;;15.40;58.40;;;;;;5094510;28;20470;-75
2021/04/30 11:16:03;;;;;;;22.80;18.30;;;15.70;56.60;;;;;;5094463;28;20440;-75
2021/04/30 11:18:30;;;;;;;24.03;18.70;;;15.80;55.50;;;;;;5094398;28;20467;-75
2021/04/30 11:21:04;;;;;;;22.63;18.30;;;15.90;56.40;;;;;;5094478;28;20493;-75
2021/04/30 11:23:38;;;;;;;24.53;17.30;;;16.30;53.50;;;;;;5094392;28;20494;-75
2021/04/30 11:26:13;;;;;;;19.67;17.40;;;16.50;53.10;;;;;;5094337;28;20435;-75
2021/04/30 11:29:09;;;;;;;18.90;17.00;;;16.60;52.80;;;;;;5094550;28;20463;-75
2021/04/30 11:31:40;;;;;;;19.67;14.80;;;16.70;52.50;;;;;;5094249;28;20813;-75
2021/04/30 11:34:25;;;;;;;25.93;18.43;;;16.80;51.90;;;;;;5094177;28;20428;-75
2021/04/30 11:36:55;;;;;;;18.90;16.90;;;16.90;52.40;;;;;;5093938;28;20906;-75
2021/04/30 11:39:24;;;;;;;21.67;18.93;;;16.70;51.50;;;;;;5094252;28;20468;-75
2021/04/30 11:41:51;;;;;;;18.07;16.27;;;16.50;51.60;;;;;;5094024;28;20854;-75
2021/04/30 11:44:19;;;;;;;19.33;17.37;;;16.40;52.40;;;;;;5093501;28;20853;-75
2021/04/30 11:46:56;;;;;;;23.70;19.00;;;16.30;52.40;;;;;;5094029;28;20481;-75
2021/04/30 11:49:23;;;;;;;20.30;17.87;;;16.00;51.30;;;;;;5093750;28;21109;-75
2021/04/30 11:51:49;;;;;;;21.43;19.23;;;15.80;52.30;;;;;;5093583;28;20483;-75
2021/04/30 11:54:19;;;;;;;18.80;16.87;;;15.30;53.30;;;;;;5094110;28;20424;-75
2021/04/30 11:56:46;;;;;;;21.23;17.90;;;14.90;53.90;;;;;;5094545;28;20447;-75
2021/04/30 11:59:19;;;;;;;20.50;16.67;;;14.70;55.50;;;;;;5094025;28;20961;-75
2021/04/30 12:02:01;;;;;;;22.60;18.00;;;14.70;55.80;;;;;;5093799;28;20428;-75
2021/04/30 12:04:42;;;;;;;20.80;16.53;;;14.80;56.60;;;;;;5093737;28;20519;-75
2021/04/30 12:07:10;;;;;;;17.70;15.87;;;14.90;55.50;;;;;;5093344;28;20996;-75
2021/04/30 12:09:36;;;;;;;17.73;15.93;;;14.90;54.70;;;;;;5093646;28;20832;-74
2021/04/30 12:12:20;;;;;;;17.17;15.53;;;15.00;54.10;;;;;;5093956;28;20449;-74
2021/04/30 12:14:52;;;;;;;18.83;16.90;;;15.10;55.00;;;;;;5093267;28;20929;-74
2021/04/30 12:17:33;;;;;;;26.03;18.20;;;15.30;54.60;;;;;;5093320;28;20920;-74
2021/04/30 12:20:04;;;;;;;19.53;17.40;;;15.40;54.30;;;;;;5093514;28;20467;-75
2021/04/30 12:22:31;;;;;;;22.20;17.53;;;15.50;52.30;;;;;;5093471;28;20464;-75
2021/04/30 12:25:26;;;;;;;23.10;16.63;;;15.60;52.90;;;;;;5093272;28;20959;-75
2021/04/30 12:27:54;;;;;;;21.67;15.80;;;15.70;52.60;;;;;;5093122;28;20465;-75
2021/04/30 12:30:29;;;;;;;22.80;17.37;;;15.70;52.20;;;;;;5093374;28;20444;-75
2021/04/30 12:32:57;;;;;;;19.07;15.50;;;15.80;52.40;;;;;;5093179;28;20450;-75
2021/04/30 12:35:24;;;;;;;18.23;15.43;;;15.90;51.90;;;;;;5093682;28;20448;-75
2021/04/30 12:37:51;;;;;;;21.67;18.60;;;16.00;52.20;;;;;;5093413;28;20454;-75
2021/04/30 12:40:24;;;;;;;24.57;18.27;;;16.00;51.90;;;;;;5093043;28;20443;-75
2021/04/30 12:42:52;;;;;;;16.03;14.40;;;15.90;52.20;;;;;;5093402;28;20499;-75
2021/04/30 12:45:19;;;;;;;18.80;16.90;;;15.80;52.30;;;;;;5093299;28;20853;-75